createdAt,value
2023-05-13T00:03:34.644Z,89.98
2023-05-13T00:06:03.863Z,90.39
2023-05-13T00:08:31.940Z,90.59
2023-05-13T00:11:00.722Z,91.59
2023-05-13T00:13:29.008Z,91.42
2023-05-13T00:15:57.076Z,91.80
2023-05-13T00:18:25.972Z,91.65
2023-05-13T00:20:54.246Z,91.32
2023-05-13T00:23:23.458Z,90.75
2023-05-13T00:25:51.883Z,90.48
2023-05-13T00:28:20.343Z,90.69
2023-05-13T00:30:48.614Z,90.82
2023-05-13T00:33:17.373Z,90.04
2023-05-13T00:35:45.551Z,88.91
2023-05-13T00:38:14.679Z,89.64
2023-05-13T00:40:43.328Z,89.73
2023-05-13T00:43:11.528Z,89.88
2023-05-13T00:45:39.804Z,90.02
2023-05-13T00:48:09.360Z,90.12
2023-05-13T00:50:37.613Z,89.27
2023-05-13T00:53:05.640Z,89.41
2023-05-13T00:55:33.806Z,88.81
2023-05-13T00:58:03.707Z,88.92
2023-05-13T01:00:36.709Z,89.02
2023-05-13T01:03:20.228Z,89.78
2023-05-13T01:06:08.624Z,87.53
2023-05-13T01:08:39.617Z,86.28
2023-05-13T01:11:19.734Z,86.21
2023-05-13T01:13:52.528Z,87.26
2023-05-13T01:16:40.117Z,87.72
2023-05-13T01:20:06.584Z,87.11
2023-05-13T01:22:34.788Z,87.87
2023-05-13T01:25:02.984Z,88.13
2023-05-13T01:27:31.245Z,88.47
2023-05-13T01:30:00.628Z,88.12
2023-05-13T01:32:28.949Z,88.66
2023-05-13T01:34:58.667Z,88.51
2023-05-13T01:37:29.448Z,89.32
2023-05-13T01:39:57.886Z,89.22
2023-05-13T01:42:29.492Z,88.96
2023-05-13T01:44:58.106Z,88.76
2023-05-13T01:47:27.134Z,88.48
2023-05-13T01:49:55.665Z,88.87
2023-05-13T01:52:23.766Z,89.03
2023-05-13T01:54:51.803Z,88.74
2023-05-13T01:57:19.898Z,88.62
2023-05-13T01:59:47.948Z,88.39
2023-05-13T02:02:16.231Z,88.66
2023-05-13T02:04:44.556Z,88.37
2023-05-13T02:07:12.607Z,88.34
2023-05-13T02:09:40.732Z,88.16
2023-05-13T02:12:08.779Z,87.96
2023-05-13T02:14:36.842Z,87.80
2023-05-13T02:17:05.260Z,87.75
2023-05-13T02:19:33.924Z,88.06
2023-05-13T02:22:01.889Z,87.81
2023-05-13T02:24:31.188Z,88.01
2023-05-13T02:26:59.888Z,88.13
2023-05-13T02:29:28.279Z,88.55
2023-05-13T02:31:57.059Z,88.65
2023-05-13T02:34:25.637Z,88.83
2023-05-13T02:36:54.470Z,88.88
2023-05-13T02:39:23.077Z,88.87
2023-05-13T02:41:51.717Z,88.94
2023-05-13T02:44:20.414Z,88.99
2023-05-13T02:46:49.578Z,89.07
2023-05-13T02:49:17.696Z,89.06
2023-05-13T02:51:46.048Z,88.97
2023-05-13T02:54:14.039Z,88.95
2023-05-13T02:56:42.255Z,89.39
2023-05-13T02:59:10.253Z,89.28
2023-05-13T03:01:38.900Z,89.33
2023-05-13T03:04:07.697Z,89.57
2023-05-13T03:06:36.370Z,89.60
2023-05-13T03:09:04.715Z,89.62
2023-05-13T03:11:32.985Z,89.42
2023-05-13T03:14:01.293Z,89.26
2023-05-13T03:16:29.390Z,89.12
2023-05-13T03:18:57.924Z,89.27
2023-05-13T03:21:27.942Z,89.31
2023-05-13T03:23:56.204Z,89.18
2023-05-13T03:26:24.872Z,89.11
2023-05-13T03:28:53.400Z,88.78
2023-05-13T03:31:22.158Z,88.75
2023-05-13T03:33:50.352Z,88.70
2023-05-13T03:36:18.805Z,88.53
2023-05-13T03:38:47.359Z,88.57
2023-05-13T03:41:15.934Z,88.04
2023-05-13T03:43:44.288Z,88.19
2023-05-13T03:46:12.434Z,88.42
2023-05-13T03:48:40.946Z,88.20
2023-05-13T03:51:09.918Z,88.13
2023-05-13T03:53:38.082Z,87.94
2023-05-13T03:56:06.501Z,87.73
2023-05-13T03:58:34.619Z,87.84
2023-05-13T04:01:02.860Z,87.85
2023-05-13T04:03:31.524Z,87.42
2023-05-13T04:06:01.049Z,87.37
2023-05-13T04:08:29.572Z,87.61
2023-05-13T04:10:58.727Z,87.61
2023-05-13T04:13:27.282Z,87.15
2023-05-13T04:15:56.450Z,87.53
2023-05-13T04:18:25.803Z,87.51
2023-05-13T04:20:53.925Z,86.96
2023-05-13T04:23:22.905Z,86.84
2023-05-13T04:25:52.068Z,86.76
2023-05-13T04:28:20.824Z,86.53
2023-05-13T04:30:49.061Z,86.41
2023-05-13T04:33:17.469Z,86.21
2023-05-13T04:35:46.163Z,86.29
2023-05-13T04:38:14.359Z,86.10
2023-05-13T04:40:44.512Z,85.99
2023-05-13T04:43:12.649Z,85.90
2023-05-13T04:45:41.177Z,86.10
2023-05-13T04:48:09.306Z,85.95
2023-05-13T04:50:37.403Z,84.71
2023-05-13T04:53:06.456Z,84.38
2023-05-13T04:55:35.646Z,85.00
2023-05-13T04:58:03.613Z,85.51
2023-05-13T05:00:31.769Z,85.86
2023-05-13T05:03:00.729Z,85.98
2023-05-13T05:05:28.827Z,85.21
2023-05-13T05:07:57.265Z,85.84
2023-05-13T05:10:25.321Z,85.94
2023-05-13T05:12:53.296Z,85.81
2023-05-13T05:15:22.717Z,84.73
2023-05-13T05:17:51.186Z,83.78
2023-05-13T05:20:20.882Z,83.41
2023-05-13T05:22:49.281Z,84.21
2023-05-13T05:25:17.434Z,84.05
2023-05-13T05:27:46.030Z,83.40
2023-05-13T05:30:14.821Z,83.38
2023-05-13T05:32:43.196Z,82.81
2023-05-13T05:35:11.576Z,83.25
2023-05-13T05:37:39.762Z,83.49
2023-05-13T05:40:08.744Z,83.28
2023-05-13T05:42:37.365Z,83.69
2023-05-13T05:45:05.765Z,83.64
2023-05-13T05:47:34.441Z,83.91
2023-05-13T05:50:02.436Z,83.42
2023-05-13T05:52:30.520Z,81.81
2023-05-13T05:54:58.718Z,82.50
2023-05-13T05:57:27.881Z,82.11
2023-05-13T05:59:55.864Z,80.04
2023-05-13T06:02:24.398Z,81.13
2023-05-13T06:04:52.668Z,81.28
2023-05-13T06:07:20.770Z,82.07
2023-05-13T06:09:49.344Z,81.40
2023-05-13T06:12:17.719Z,81.85
2023-05-13T06:14:45.816Z,81.71
2023-05-13T06:17:14.495Z,81.63
2023-05-13T06:19:42.659Z,81.56
2023-05-13T06:22:11.643Z,80.27
2023-05-13T06:24:39.911Z,80.57
2023-05-13T06:27:07.988Z,80.64
2023-05-13T06:29:36.018Z,80.79
2023-05-13T06:32:04.877Z,80.13
2023-05-13T06:34:32.953Z,79.27
2023-05-13T06:37:00.922Z,79.15
2023-05-13T06:39:29.239Z,79.20
2023-05-13T06:41:57.213Z,79.30
2023-05-13T06:44:25.185Z,79.51
2023-05-13T06:46:53.543Z,79.52
2023-05-13T06:49:22.237Z,81.14
2023-05-13T06:51:51.200Z,81.22
2023-05-13T06:54:20.055Z,81.14
2023-05-13T06:56:48.128Z,80.68
2023-05-13T06:59:16.313Z,79.81
2023-05-13T07:01:44.600Z,79.53
2023-05-13T07:04:13.029Z,77.47
2023-05-13T07:06:41.218Z,77.11
2023-05-13T07:09:09.390Z,75.98
2023-05-13T07:11:37.558Z,75.87
2023-05-13T07:14:05.759Z,75.83
2023-05-13T07:16:34.292Z,73.86
2023-05-13T07:19:02.621Z,73.92
2023-05-13T07:21:31.388Z,73.07
2023-05-13T07:23:59.555Z,74.09
2023-05-13T07:26:29.272Z,73.74
2023-05-13T07:29:01.886Z,73.36
2023-05-13T07:31:38.536Z,71.96
2023-05-13T07:34:07.186Z,72.23
2023-05-13T07:36:35.300Z,71.38
2023-05-13T07:39:03.506Z,71.82
2023-05-13T07:41:31.571Z,70.19
2023-05-13T07:43:59.930Z,69.55
2023-05-13T07:46:28.419Z,69.21
2023-05-13T07:48:56.592Z,67.32
2023-05-13T07:51:27.182Z,67.33
2023-05-13T07:53:58.654Z,66.72
2023-05-13T07:56:27.766Z,65.03
2023-05-13T07:58:56.857Z,64.40
2023-05-13T08:01:25.187Z,63.47
2023-05-13T08:03:53.567Z,62.56
2023-05-13T08:06:21.934Z,61.35
2023-05-13T08:08:51.150Z,61.48
2023-05-13T08:11:19.292Z,64.14
2023-05-13T08:13:48.082Z,60.50
2023-05-13T08:16:16.308Z,60.53
2023-05-13T08:18:44.453Z,61.98
2023-05-13T08:21:14.317Z,58.33
2023-05-13T08:23:45.440Z,60.71
2023-05-13T08:26:15.040Z,58.59
2023-05-13T08:28:43.138Z,58.96
2023-05-13T08:31:13.138Z,60.82
2023-05-13T08:33:42.281Z,61.16
2023-05-13T08:36:11.229Z,58.06
2023-05-13T08:38:39.538Z,58.08
2023-05-13T08:41:08.855Z,57.79
2023-05-13T08:43:38.750Z,55.92
2023-05-13T08:46:10.402Z,55.95
2023-05-13T08:48:41.019Z,56.51
2023-05-13T08:51:10.222Z,54.86
2023-05-13T08:53:40.252Z,53.25
2023-05-13T08:56:09.358Z,53.75
2023-05-13T08:58:37.444Z,51.88
2023-05-13T09:01:06.763Z,52.90
2023-05-13T09:03:36.000Z,54.97
2023-05-13T09:06:04.408Z,51.92
2023-05-13T09:08:32.963Z,53.04
2023-05-13T09:11:01.204Z,49.73
2023-05-13T09:13:29.512Z,50.11
2023-05-13T09:15:58.170Z,49.93
2023-05-13T09:18:31.184Z,51.60
2023-05-13T09:21:23.908Z,52.41
2023-05-13T09:24:08.466Z,50.36
2023-05-13T09:26:38.410Z,50.59
2023-05-13T09:29:28.926Z,52.31
2023-05-13T09:31:59.384Z,52.08
2023-05-13T09:34:32.820Z,51.26
2023-05-13T09:37:04.320Z,50.50
2023-05-13T09:39:38.273Z,49.81
2023-05-13T09:42:15.353Z,50.12
2023-05-13T09:44:45.100Z,49.27
2023-05-13T09:47:14.778Z,47.49
2023-05-13T09:49:44.185Z,48.31
2023-05-13T09:52:16.606Z,50.90
2023-05-13T09:54:45.073Z,49.55
2023-05-13T09:57:13.906Z,50.51
2023-05-13T09:59:42.103Z,51.21
2023-05-13T10:02:16.238Z,51.98
2023-05-13T10:04:44.753Z,48.56
2023-05-13T10:07:16.744Z,47.55
2023-05-13T10:09:47.782Z,46.64
2023-05-13T10:12:16.679Z,46.68
2023-05-13T10:14:45.269Z,46.78
2023-05-13T10:17:14.621Z,47.38
2023-05-13T10:19:43.586Z,48.57
2023-05-13T10:22:13.232Z,48.31
2023-05-13T10:24:43.418Z,46.51
2023-05-13T10:27:12.295Z,48.07
2023-05-13T10:29:43.955Z,47.14
2023-05-13T10:32:13.061Z,47.04
2023-05-13T10:34:44.196Z,45.50
2023-05-13T10:37:31.272Z,45.77
2023-05-13T10:40:17.982Z,47.00
2023-05-13T10:43:08.755Z,46.97
2023-05-13T10:45:37.669Z,46.81
2023-05-13T10:48:08.843Z,46.70
2023-05-13T10:50:39.134Z,49.47
2023-05-13T10:53:20.219Z,49.84
2023-05-13T10:55:53.916Z,48.61
2023-05-13T10:58:33.441Z,49.33
2023-05-13T11:01:16.963Z,49.15
2023-05-13T11:03:57.764Z,49.49
2023-05-13T11:06:38.204Z,51.69
2023-05-13T11:09:27.504Z,50.43
2023-05-13T11:12:01.336Z,50.12
2023-05-13T11:14:32.848Z,49.40
2023-05-13T11:17:01.059Z,51.32
2023-05-13T11:19:32.370Z,49.71
2023-05-13T11:22:15.429Z,49.57
2023-05-13T11:25:07.770Z,48.93
2023-05-13T11:27:41.091Z,49.49
2023-05-13T11:30:23.465Z,50.22
2023-05-13T11:32:51.989Z,50.82
2023-05-13T11:35:26.143Z,51.04
2023-05-13T11:38:03.612Z,51.26
2023-05-13T11:40:36.840Z,50.53
2023-05-13T11:43:05.366Z,52.05
2023-05-13T11:45:39.314Z,52.29
2023-05-13T11:48:22.884Z,51.37
2023-05-13T11:50:51.877Z,51.07
2023-05-13T11:53:21.485Z,52.00
2023-05-13T11:55:50.633Z,50.28
2023-05-13T11:58:21.559Z,50.31
2023-05-13T12:00:49.969Z,50.64
2023-05-13T12:03:18.230Z,51.63
2023-05-13T12:05:46.524Z,51.63
2023-05-13T12:08:14.820Z,52.32
2023-05-13T12:10:43.863Z,52.21
2023-05-13T12:13:12.725Z,52.59
2023-05-13T12:15:42.136Z,53.36
2023-05-13T12:18:10.462Z,54.02
2023-05-13T12:20:38.816Z,54.16
2023-05-13T12:23:06.977Z,54.53
2023-05-13T12:25:41.651Z,54.46
2023-05-13T12:28:24.877Z,54.01
2023-05-13T12:30:54.987Z,53.74
2023-05-13T12:33:28.826Z,53.66
2023-05-13T12:36:18.378Z,54.65
2023-05-13T12:39:04.109Z,55.61
2023-05-13T12:41:34.024Z,55.42
2023-05-13T12:44:18.434Z,55.50
2023-05-13T12:46:54.221Z,55.19
2023-05-13T12:49:22.307Z,57.23
2023-05-13T12:51:50.545Z,58.06
2023-05-13T12:54:18.670Z,57.69
2023-05-13T12:56:46.781Z,57.52
2023-05-13T12:59:14.920Z,57.21
2023-05-13T13:01:43.427Z,58.15
2023-05-13T13:04:12.157Z,58.65
2023-05-13T13:06:40.718Z,57.94
2023-05-13T13:09:08.873Z,58.71
2023-05-13T13:11:36.939Z,60.19
2023-05-13T13:14:04.878Z,60.84
2023-05-13T13:16:33.669Z,59.77
2023-05-13T13:19:02.901Z,59.02
2023-05-13T13:21:32.794Z,59.97
2023-05-13T13:24:01.391Z,60.40
2023-05-13T13:26:29.895Z,60.56
2023-05-13T13:28:58.257Z,62.02
2023-05-13T13:31:26.343Z,62.45
2023-05-13T13:33:54.862Z,63.44
2023-05-13T13:36:23.614Z,63.19
2023-05-13T13:38:51.877Z,62.78
2023-05-13T13:41:19.981Z,61.98
2023-05-13T13:43:47.984Z,61.67
2023-05-13T13:46:16.855Z,61.77
2023-05-13T13:48:44.945Z,61.11
2023-05-13T13:51:13.029Z,60.13
2023-05-13T13:53:41.180Z,59.58
2023-05-13T13:56:11.442Z,58.42
2023-05-13T13:58:41.173Z,58.62
2023-05-13T14:01:09.310Z,60.06
2023-05-13T14:03:37.911Z,59.46
2023-05-13T14:06:06.690Z,59.79
2023-05-13T14:08:34.714Z,60.01
2023-05-13T14:11:02.985Z,60.08
2023-05-13T14:13:31.024Z,60.22
2023-05-13T14:15:59.746Z,60.76
2023-05-13T14:18:29.320Z,61.03
2023-05-13T14:20:57.493Z,61.09
2023-05-13T14:23:25.672Z,61.27
2023-05-13T14:25:53.963Z,61.55
2023-05-13T14:28:23.735Z,61.25
2023-05-13T14:30:53.121Z,61.61
2023-05-13T14:33:21.133Z,61.69
2023-05-13T14:35:49.614Z,61.56
2023-05-13T14:38:17.690Z,60.89
2023-05-13T14:40:45.711Z,60.28
2023-05-13T14:43:14.053Z,60.85
2023-05-13T14:45:42.087Z,60.81
2023-05-13T14:48:10.130Z,61.78
2023-05-13T14:50:39.356Z,60.90
2023-05-13T14:53:08.937Z,61.44
2023-05-13T14:55:37.231Z,61.22
2023-05-13T14:58:06.021Z,60.19
2023-05-13T15:00:35.199Z,60.19
2023-05-13T15:03:03.747Z,60.46
2023-05-13T15:05:32.422Z,59.88
2023-05-13T15:08:00.557Z,58.02
2023-05-13T15:10:28.665Z,57.59
2023-05-13T15:12:56.864Z,56.57
2023-05-13T15:15:25.132Z,55.84
2023-05-13T15:17:54.053Z,56.24
2023-05-13T15:20:22.943Z,54.28
2023-05-13T15:22:51.378Z,53.58
2023-05-13T15:25:22.449Z,53.13
2023-05-13T15:27:50.668Z,51.83
2023-05-13T15:30:19.302Z,51.40
2023-05-13T15:32:48.042Z,52.46
2023-05-13T15:35:16.530Z,53.08
2023-05-13T15:37:45.040Z,50.94
2023-05-13T15:40:13.323Z,50.16
2023-05-13T15:42:41.825Z,50.05
2023-05-13T15:45:09.953Z,50.00
2023-05-13T15:47:38.648Z,50.10
2023-05-13T15:50:12.449Z,50.07
2023-05-13T15:52:41.264Z,50.69
2023-05-13T15:55:09.388Z,51.10
2023-05-13T15:57:38.151Z,50.24
2023-05-13T16:00:07.197Z,49.54
2023-05-13T16:02:35.326Z,49.32
2023-05-13T16:05:04.142Z,48.58
2023-05-13T16:07:32.731Z,49.39
2023-05-13T16:10:01.016Z,50.08
2023-05-13T16:12:31.034Z,50.73
2023-05-13T16:14:59.198Z,50.11
2023-05-13T16:17:27.236Z,52.49
2023-05-13T16:19:55.782Z,50.84
2023-05-13T16:22:35.398Z,52.47
2023-05-13T16:25:09.231Z,50.48
2023-05-13T16:27:39.272Z,49.06
2023-05-13T16:30:08.721Z,50.23
2023-05-13T16:32:37.809Z,52.10
2023-05-13T16:35:06.941Z,51.21
2023-05-13T16:37:35.674Z,50.64
2023-05-13T16:40:04.668Z,51.22
2023-05-13T16:42:34.137Z,50.78
2023-05-13T16:45:02.171Z,50.98
2023-05-13T16:47:30.430Z,51.12
2023-05-13T16:49:59.372Z,52.14
2023-05-13T16:52:27.990Z,53.02
2023-05-13T16:54:58.374Z,52.92
2023-05-13T16:57:28.894Z,53.40
2023-05-13T16:59:57.953Z,54.91
2023-05-13T17:02:26.243Z,54.64
2023-05-13T17:04:55.127Z,54.84
2023-05-13T17:07:23.245Z,55.39
2023-05-13T17:09:51.391Z,55.48
2023-05-13T17:12:21.394Z,56.00
2023-05-13T17:14:49.754Z,56.16
2023-05-13T17:17:17.851Z,58.14
2023-05-13T17:19:46.134Z,57.44
2023-05-13T17:22:14.233Z,57.32
2023-05-13T17:24:42.367Z,57.55
2023-05-13T17:27:11.341Z,57.37
2023-05-13T17:29:39.319Z,57.77
2023-05-13T17:32:07.854Z,57.04
2023-05-13T17:34:36.145Z,57.08
2023-05-13T17:37:04.155Z,58.31
2023-05-13T17:39:33.080Z,58.57
2023-05-13T17:42:01.228Z,60.64
2023-05-13T17:44:29.404Z,59.04
2023-05-13T17:46:58.273Z,59.18
2023-05-13T17:49:26.845Z,59.10
2023-05-13T17:51:55.014Z,59.52
2023-05-13T17:54:23.156Z,59.41
2023-05-13T17:56:52.020Z,59.31
2023-05-13T17:59:20.153Z,59.32
2023-05-13T18:01:48.436Z,59.32
2023-05-13T18:04:16.542Z,60.78
2023-05-13T18:06:45.140Z,60.33
2023-05-13T18:09:13.368Z,60.22
2023-05-13T18:11:42.949Z,60.09
2023-05-13T18:14:11.067Z,60.19
2023-05-13T18:16:39.402Z,61.32
2023-05-13T18:19:08.035Z,60.24
2023-05-13T18:21:36.236Z,60.57
2023-05-13T18:24:04.624Z,62.62
2023-05-13T18:26:33.244Z,65.73
2023-05-13T18:29:01.191Z,61.21
2023-05-13T18:31:29.529Z,62.68
2023-05-13T18:33:58.337Z,60.63
2023-05-13T18:36:26.507Z,61.15
2023-05-13T18:38:55.191Z,60.69
2023-05-13T18:41:23.254Z,61.57
2023-05-13T18:43:51.546Z,60.52
2023-05-13T18:46:20.280Z,60.31
2023-05-13T18:48:48.693Z,61.32
2023-05-13T18:51:16.921Z,59.83
2023-05-13T18:53:45.557Z,59.48
2023-05-13T18:56:13.881Z,60.29
2023-05-13T18:58:41.870Z,64.39
2023-05-13T19:01:09.869Z,65.15
2023-05-13T19:03:39.212Z,62.04
2023-05-13T19:06:07.963Z,61.22
2023-05-13T19:08:36.445Z,62.68
2023-05-13T19:11:05.395Z,61.95
2023-05-13T19:13:46.043Z,61.51
2023-05-13T19:16:16.015Z,62.07
2023-05-13T19:18:44.108Z,63.71
2023-05-13T19:21:12.155Z,61.90
2023-05-13T19:23:40.252Z,62.01
2023-05-13T19:26:11.386Z,62.33
2023-05-13T19:28:40.040Z,63.35
2023-05-13T19:31:08.092Z,63.15
2023-05-13T19:33:36.696Z,62.57
2023-05-13T19:36:06.198Z,62.50
2023-05-13T19:38:35.593Z,61.88
2023-05-13T19:41:03.717Z,62.22
2023-05-13T19:43:31.927Z,62.64
2023-05-13T19:46:00.699Z,62.98
2023-05-13T19:48:30.163Z,63.49
2023-05-13T19:50:58.236Z,64.10
2023-05-13T19:53:26.802Z,64.45
2023-05-13T19:55:55.064Z,64.81
2023-05-13T19:58:23.336Z,65.68
2023-05-13T20:00:51.567Z,65.37
2023-05-13T20:03:19.793Z,66.05
2023-05-13T20:05:48.557Z,66.47
2023-05-13T20:08:16.600Z,66.30
2023-05-13T20:10:44.800Z,65.27
2023-05-13T20:13:14.119Z,66.00
2023-05-13T20:15:42.623Z,65.92
2023-05-13T20:18:11.009Z,65.43
2023-05-13T20:20:39.322Z,66.27
2023-05-13T20:23:07.919Z,65.24
2023-05-13T20:25:37.085Z,66.25
2023-05-13T20:28:05.412Z,66.28
2023-05-13T20:30:33.791Z,66.04
2023-05-13T20:33:01.817Z,66.51
2023-05-13T20:35:30.341Z,65.98
2023-05-13T20:37:58.326Z,66.01
2023-05-13T20:40:26.779Z,67.15
2023-05-13T20:42:55.059Z,66.43
2023-05-13T20:45:23.141Z,67.06
2023-05-13T20:47:51.121Z,67.77
2023-05-13T20:50:19.396Z,67.65
2023-05-13T20:52:47.519Z,67.33
2023-05-13T20:55:15.773Z,66.84
2023-05-13T20:57:45.178Z,66.78
2023-05-13T21:00:14.324Z,67.30
2023-05-13T21:02:42.771Z,67.69
2023-05-13T21:05:11.314Z,67.47
2023-05-13T21:07:39.319Z,67.78
2023-05-13T21:10:09.792Z,67.84
2023-05-13T21:12:37.907Z,68.28
2023-05-13T21:15:07.554Z,68.11
2023-05-13T21:17:36.101Z,68.39
2023-05-13T21:20:05.191Z,68.80
2023-05-13T21:22:33.179Z,68.59
2023-05-13T21:25:01.242Z,69.01
2023-05-13T21:27:29.825Z,68.92
2023-05-13T21:29:58.259Z,69.76
2023-05-13T21:32:26.369Z,69.33
2023-05-13T21:34:55.831Z,69.18
2023-05-13T21:37:25.772Z,69.60
2023-05-13T21:39:53.834Z,70.10
2023-05-13T21:42:22.108Z,70.61
2023-05-13T21:44:50.473Z,70.83
2023-05-13T21:47:18.651Z,70.47
2023-05-13T21:49:46.805Z,70.45
2023-05-13T21:52:14.921Z,70.83
2023-05-13T21:54:42.992Z,70.60
2023-05-13T21:57:10.957Z,70.08
2023-05-13T21:59:39.299Z,70.55
2023-05-13T22:02:07.977Z,70.53
2023-05-13T22:04:36.963Z,71.02
2023-05-13T22:07:05.067Z,70.03
2023-05-13T22:09:33.657Z,69.46
2023-05-13T22:12:02.800Z,70.67
2023-05-13T22:14:31.505Z,71.00
2023-05-13T22:17:09.144Z,71.28
2023-05-13T22:19:38.172Z,71.45
2023-05-13T22:22:06.285Z,71.70
2023-05-13T22:24:35.956Z,71.49
2023-05-13T22:27:04.397Z,70.97
2023-05-13T22:29:32.781Z,71.36
2023-05-13T22:32:02.392Z,71.67
2023-05-13T22:34:30.676Z,71.64
2023-05-13T22:37:01.414Z,71.32
2023-05-13T22:39:29.475Z,71.23
2023-05-13T22:41:58.110Z,71.37
2023-05-13T22:44:26.221Z,71.25
2023-05-13T22:46:54.294Z,71.45
2023-05-13T22:49:23.128Z,72.08
2023-05-13T22:51:51.410Z,71.86
2023-05-13T22:54:20.736Z,72.00
2023-05-13T22:56:48.854Z,72.32
2023-05-13T22:59:17.379Z,72.18
2023-05-13T23:01:45.954Z,72.47
2023-05-13T23:04:14.619Z,72.21
2023-05-13T23:06:43.288Z,72.28
2023-05-13T23:09:11.330Z,72.52
2023-05-13T23:11:39.641Z,72.20
2023-05-13T23:14:08.227Z,72.33
2023-05-13T23:16:36.512Z,72.41
2023-05-13T23:19:05.115Z,73.19
2023-05-13T23:21:33.196Z,72.75
2023-05-13T23:24:01.437Z,73.11
2023-05-13T23:26:29.779Z,72.67
2023-05-13T23:28:57.776Z,73.12
2023-05-13T23:31:26.113Z,73.11
2023-05-13T23:33:54.964Z,72.76
2023-05-13T23:36:23.534Z,72.57
2023-05-13T23:38:52.526Z,72.59
2023-05-13T23:41:20.532Z,72.67
2023-05-13T23:43:48.857Z,73.01
2023-05-13T23:46:17.065Z,72.65
2023-05-13T23:48:45.682Z,73.28
2023-05-13T23:51:14.419Z,73.32
2023-05-13T23:53:43.171Z,72.24
2023-05-13T23:56:12.040Z,73.62
2023-05-13T23:58:40.047Z,73.59
